sensor_id;sensor_type;location;lat;lon;timestamp;temperature;humidity
16102;DHT22;56411;52.964;10.540;2023-07-29T00:00:46;17.40;99.90
16102;DHT22;56411;52.964;10.540;2023-07-29T00:03:13;17.40;99.90
16102;DHT22;56411;52.964;10.540;2023-07-29T00:05:42;17.20;99.90
16102;DHT22;56411;52.964;10.540;2023-07-29T00:08:09;17.10;99.90
16102;DHT22;56411;52.964;10.540;2023-07-29T00:10:37;17.10;99.90
16102;DHT22;56411;52.964;10.540;2023-07-29T00:13:04;17.00;99.90
16102;DHT22;56411;52.964;10.540;2023-07-29T00:15:32;16.90;99.90
16102;DHT22;56411;52.964;10.540;2023-07-29T00:17:59;16.90;99.90
16102;DHT22;56411;52.964;10.540;2023-07-29T00:20:26;16.90;99.90
16102;DHT22;56411;52.964;10.540;2023-07-29T00:22:54;16.80;99.90
16102;DHT22;56411;52.964;10.540;2023-07-29T00:25:23;16.80;99.90
16102;DHT22;56411;52.964;10.540;2023-07-29T00:27:50;16.70;99.90
16102;DHT22;56411;52.964;10.540;2023-07-29T00:30:18;16.60;99.90
16102;DHT22;56411;52.964;10.540;2023-07-29T00:32:45;16.60;99.90
16102;DHT22;56411;52.964;10.540;2023-07-29T00:35:12;16.50;99.90
16102;DHT22;56411;52.964;10.540;2023-07-29T00:37:39;16.60;99.90
16102;DHT22;56411;52.964;10.540;2023-07-29T00:40:15;16.50;99.90
16102;DHT22;56411;52.964;10.540;2023-07-29T00:42:43;16.50;99.90
16102;DHT22;56411;52.964;10.540;2023-07-29T00:45:10;16.50;99.90
16102;DHT22;56411;52.964;10.540;2023-07-29T00:47:37;16.50;99.90
16102;DHT22;56411;52.964;10.540;2023-07-29T00:50:05;16.60;99.90
16102;DHT22;56411;52.964;10.540;2023-07-29T00:52:33;16.60;99.90
16102;DHT22;56411;52.964;10.540;2023-07-29T00:55:00;16.50;99.90
16102;DHT22;56411;52.964;10.540;2023-07-29T00:57:29;16.50;99.90
16102;DHT22;56411;52.964;10.540;2023-07-29T00:59:57;16.60;99.90
16102;DHT22;56411;52.964;10.540;2023-07-29T01:02:24;16.60;99.90
16102;DHT22;56411;52.964;10.540;2023-07-29T01:04:52;16.60;99.90
16102;DHT22;56411;52.964;10.540;2023-07-29T01:07:24;16.70;99.90
16102;DHT22;56411;52.964;10.540;2023-07-29T01:10:00;16.80;99.90
16102;DHT22;56411;52.964;10.540;2023-07-29T01:12:36;16.80;99.90
16102;DHT22;56411;52.964;10.540;2023-07-29T01:15:10;16.90;99.90
16102;DHT22;56411;52.964;10.540;2023-07-29T01:17:42;16.90;99.90
16102;DHT22;56411;52.964;10.540;2023-07-29T01:20:13;16.90;99.90
16102;DHT22;56411;52.964;10.540;2023-07-29T01:22:40;16.90;99.90
16102;DHT22;56411;52.964;10.540;2023-07-29T01:25:09;16.90;99.90
16102;DHT22;56411;52.964;10.540;2023-07-29T01:27:37;16.80;99.90
16102;DHT22;56411;52.964;10.540;2023-07-29T01:30:05;16.80;99.90
16102;DHT22;56411;52.964;10.540;2023-07-29T01:32:37;16.80;99.90
16102;DHT22;56411;52.964;10.540;2023-07-29T01:35:15;16.80;99.90
16102;DHT22;56411;52.964;10.540;2023-07-29T01:37:45;16.80;99.90
16102;DHT22;56411;52.964;10.540;2023-07-29T01:40:16;16.80;99.90
16102;DHT22;56411;52.964;10.540;2023-07-29T01:42:45;16.70;99.90
16102;DHT22;56411;52.964;10.540;2023-07-29T01:45:12;16.70;99.90
16102;DHT22;56411;52.964;10.540;2023-07-29T01:47:39;16.70;99.90
16102;DHT22;56411;52.964;10.540;2023-07-29T01:50:08;16.70;99.90
16102;DHT22;56411;52.964;10.540;2023-07-29T01:52:35;16.80;99.90
16102;DHT22;56411;52.964;10.540;2023-07-29T01:55:02;16.80;99.90
16102;DHT22;56411;52.964;10.540;2023-07-29T01:57:31;16.80;99.90
16102;DHT22;56411;52.964;10.540;2023-07-29T01:59:58;16.80;99.90
16102;DHT22;56411;52.964;10.540;2023-07-29T02:02:26;16.80;99.90
16102;DHT22;56411;52.964;10.540;2023-07-29T02:04:52;16.90;99.90
16102;DHT22;56411;52.964;10.540;2023-07-29T02:07:21;16.80;99.90
16102;DHT22;56411;52.964;10.540;2023-07-29T02:09:49;16.80;99.90
16102;DHT22;56411;52.964;10.540;2023-07-29T02:12:15;16.70;99.90
16102;DHT22;56411;52.964;10.540;2023-07-29T02:14:44;16.70;99.90
16102;DHT22;56411;52.964;10.540;2023-07-29T02:17:11;16.70;99.90
16102;DHT22;56411;52.964;10.540;2023-07-29T02:19:38;16.70;99.90
16102;DHT22;56411;52.964;10.540;2023-07-29T02:22:05;16.60;99.90
16102;DHT22;56411;52.964;10.540;2023-07-29T02:24:34;16.50;99.90
16102;DHT22;56411;52.964;10.540;2023-07-29T02:27:01;16.40;99.90
16102;DHT22;56411;52.964;10.540;2023-07-29T02:29:28;16.40;99.90
16102;DHT22;56411;52.964;10.540;2023-07-29T02:32:00;16.30;99.90
16102;DHT22;56411;52.964;10.540;2023-07-29T02:34:27;16.20;99.90
16102;DHT22;56411;52.964;10.540;2023-07-29T02:36:55;16.20;99.90
16102;DHT22;56411;52.964;10.540;2023-07-29T02:39:22;16.20;99.90
16102;DHT22;56411;52.964;10.540;2023-07-29T02:41:49;16.20;99.90
16102;DHT22;56411;52.964;10.540;2023-07-29T02:44:17;16.20;99.90
16102;DHT22;56411;52.964;10.540;2023-07-29T02:46:45;16.20;99.90
16102;DHT22;56411;52.964;10.540;2023-07-29T02:49:13;16.30;99.90
16102;DHT22;56411;52.964;10.540;2023-07-29T02:51:40;16.30;99.90
16102;DHT22;56411;52.964;10.540;2023-07-29T02:54:07;16.20;99.90
16102;DHT22;56411;52.964;10.540;2023-07-29T02:56:35;16.20;99.90
16102;DHT22;56411;52.964;10.540;2023-07-29T02:59:01;16.10;99.90
16102;DHT22;56411;52.964;10.540;2023-07-29T03:01:29;16.20;99.90
16102;DHT22;56411;52.964;10.540;2023-07-29T03:03:56;16.20;99.90
16102;DHT22;56411;52.964;10.540;2023-07-29T03:06:24;16.20;99.90
16102;DHT22;56411;52.964;10.540;2023-07-29T03:08:51;16.20;99.90
16102;DHT22;56411;52.964;10.540;2023-07-29T03:11:19;16.20;99.90
16102;DHT22;56411;52.964;10.540;2023-07-29T03:13:46;16.10;99.90
16102;DHT22;56411;52.964;10.540;2023-07-29T03:16:14;16.10;99.90
16102;DHT22;56411;52.964;10.540;2023-07-29T03:18:42;16.10;99.90
16102;DHT22;56411;52.964;10.540;2023-07-29T03:21:09;16.10;99.90
16102;DHT22;56411;52.964;10.540;2023-07-29T03:23:38;16.10;99.90
16102;DHT22;56411;52.964;10.540;2023-07-29T03:26:05;16.10;99.90
16102;DHT22;56411;52.964;10.540;2023-07-29T03:28:37;16.20;99.90
16102;DHT22;56411;52.964;10.540;2023-07-29T03:31:04;16.20;99.90
16102;DHT22;56411;52.964;10.540;2023-07-29T03:33:31;16.30;99.90
16102;DHT22;56411;52.964;10.540;2023-07-29T03:35:58;16.40;99.90
16102;DHT22;56411;52.964;10.540;2023-07-29T03:38:25;16.40;99.90
16102;DHT22;56411;52.964;10.540;2023-07-29T03:40:54;16.40;99.90
16102;DHT22;56411;52.964;10.540;2023-07-29T03:43:21;16.50;99.90
16102;DHT22;56411;52.964;10.540;2023-07-29T03:45:48;16.50;99.90
16102;DHT22;56411;52.964;10.540;2023-07-29T03:48:15;16.50;99.90
16102;DHT22;56411;52.964;10.540;2023-07-29T03:50:42;16.50;99.90
16102;DHT22;56411;52.964;10.540;2023-07-29T03:53:09;16.50;99.90
16102;DHT22;56411;52.964;10.540;2023-07-29T03:55:36;16.50;99.90
16102;DHT22;56411;52.964;10.540;2023-07-29T03:58:05;16.50;99.90
16102;DHT22;56411;52.964;10.540;2023-07-29T04:00:32;16.50;99.90
16102;DHT22;56411;52.964;10.540;2023-07-29T04:02:59;16.50;99.90
16102;DHT22;56411;52.964;10.540;2023-07-29T04:05:26;16.50;99.90
16102;DHT22;56411;52.964;10.540;2023-07-29T04:07:54;16.50;99.90
16102;DHT22;56411;52.964;10.540;2023-07-29T04:10:21;16.50;99.90
16102;DHT22;56411;52.964;10.540;2023-07-29T04:12:48;16.50;99.90
16102;DHT22;56411;52.964;10.540;2023-07-29T04:15:17;16.60;99.90
16102;DHT22;56411;52.964;10.540;2023-07-29T04:17:44;16.60;99.90
16102;DHT22;56411;52.964;10.540;2023-07-29T04:20:11;16.60;99.90
16102;DHT22;56411;52.964;10.540;2023-07-29T04:22:38;16.60;99.90
16102;DHT22;56411;52.964;10.540;2023-07-29T04:25:06;16.60;99.90
16102;DHT22;56411;52.964;10.540;2023-07-29T04:27:33;16.60;99.90
16102;DHT22;56411;52.964;10.540;2023-07-29T04:30:00;16.60;99.90
16102;DHT22;56411;52.964;10.540;2023-07-29T04:32:29;16.70;99.90
16102;DHT22;56411;52.964;10.540;2023-07-29T04:34:56;16.70;99.90
16102;DHT22;56411;52.964;10.540;2023-07-29T04:37:23;16.70;99.90
16102;DHT22;56411;52.964;10.540;2023-07-29T04:39:50;16.80;99.90
16102;DHT22;56411;52.964;10.540;2023-07-29T04:42:17;16.80;99.90
16102;DHT22;56411;52.964;10.540;2023-07-29T04:44:44;16.80;99.90
16102;DHT22;56411;52.964;10.540;2023-07-29T04:47:11;16.80;99.90
16102;DHT22;56411;52.964;10.540;2023-07-29T04:49:40;16.90;99.90
16102;DHT22;56411;52.964;10.540;2023-07-29T04:52:07;17.00;99.90
16102;DHT22;56411;52.964;10.540;2023-07-29T04:54:34;17.10;99.90
16102;DHT22;56411;52.964;10.540;2023-07-29T04:57:01;17.20;99.90
16102;DHT22;56411;52.964;10.540;2023-07-29T04:59:27;17.30;99.90
16102;DHT22;56411;52.964;10.540;2023-07-29T05:01:54;17.40;99.90
16102;DHT22;56411;52.964;10.540;2023-07-29T05:04:21;17.50;99.90
16102;DHT22;56411;52.964;10.540;2023-07-29T05:06:49;17.50;99.90
16102;DHT22;56411;52.964;10.540;2023-07-29T05:09:18;17.50;99.90
16102;DHT22;56411;52.964;10.540;2023-07-29T05:11:47;17.50;99.90
16102;DHT22;56411;52.964;10.540;2023-07-29T05:14:15;17.50;99.90
16102;DHT22;56411;52.964;10.540;2023-07-29T05:16:43;17.50;99.90
16102;DHT22;56411;52.964;10.540;2023-07-29T05:19:11;17.50;99.90
16102;DHT22;56411;52.964;10.540;2023-07-29T05:21:38;17.50;99.90
16102;DHT22;56411;52.964;10.540;2023-07-29T05:24:07;17.50;99.90
16102;DHT22;56411;52.964;10.540;2023-07-29T05:26:34;17.60;99.90
16102;DHT22;56411;52.964;10.540;2023-07-29T05:29:02;17.50;99.90
16102;DHT22;56411;52.964;10.540;2023-07-29T05:31:29;17.60;99.90
16102;DHT22;56411;52.964;10.540;2023-07-29T05:33:56;17.70;99.90
16102;DHT22;56411;52.964;10.540;2023-07-29T05:36:23;17.60;99.90
16102;DHT22;56411;52.964;10.540;2023-07-29T05:38:51;17.60;99.90
16102;DHT22;56411;52.964;10.540;2023-07-29T05:41:20;17.60;99.90
16102;DHT22;56411;52.964;10.540;2023-07-29T05:43:47;17.60;99.90
16102;DHT22;56411;52.964;10.540;2023-07-29T05:46:14;17.60;99.90
16102;DHT22;56411;52.964;10.540;2023-07-29T05:48:41;17.70;99.90
16102;DHT22;56411;52.964;10.540;2023-07-29T05:51:08;17.70;99.90
16102;DHT22;56411;52.964;10.540;2023-07-29T05:53:35;17.70;99.90
16102;DHT22;56411;52.964;10.540;2023-07-29T05:56:02;17.70;99.90
16102;DHT22;56411;52.964;10.540;2023-07-29T05:58:31;17.70;99.90
16102;DHT22;56411;52.964;10.540;2023-07-29T06:00:58;17.70;99.90
16102;DHT22;56411;52.964;10.540;2023-07-29T06:03:25;17.70;99.90
16102;DHT22;56411;52.964;10.540;2023-07-29T06:05:53;17.70;99.90
16102;DHT22;56411;52.964;10.540;2023-07-29T06:08:20;17.80;99.90
16102;DHT22;56411;52.964;10.540;2023-07-29T06:10:47;17.80;99.90
16102;DHT22;56411;52.964;10.540;2023-07-29T06:13:14;17.90;99.90
16102;DHT22;56411;52.964;10.540;2023-07-29T06:15:43;18.10;99.90
16102;DHT22;56411;52.964;10.540;2023-07-29T06:18:11;18.10;99.90
16102;DHT22;56411;52.964;10.540;2023-07-29T06:20:38;18.10;99.90
16102;DHT22;56411;52.964;10.540;2023-07-29T06:23:05;18.20;99.90
16102;DHT22;56411;52.964;10.540;2023-07-29T06:25:32;18.30;99.90
16102;DHT22;56411;52.964;10.540;2023-07-29T06:27:59;18.40;99.90
16102;DHT22;56411;52.964;10.540;2023-07-29T06:30:26;18.40;99.90
16102;DHT22;56411;52.964;10.540;2023-07-29T06:32:55;18.50;99.90
16102;DHT22;56411;52.964;10.540;2023-07-29T06:35:22;18.60;99.90
16102;DHT22;56411;52.964;10.540;2023-07-29T06:37:49;18.60;99.90
16102;DHT22;56411;52.964;10.540;2023-07-29T06:40:16;18.50;99.90
16102;DHT22;56411;52.964;10.540;2023-07-29T06:42:43;18.50;99.90
16102;DHT22;56411;52.964;10.540;2023-07-29T06:45:13;18.60;99.90
16102;DHT22;56411;52.964;10.540;2023-07-29T06:47:41;18.70;99.90
16102;DHT22;56411;52.964;10.540;2023-07-29T06:50:10;18.90;99.90
16102;DHT22;56411;52.964;10.540;2023-07-29T06:52:37;19.10;99.90
16102;DHT22;56411;52.964;10.540;2023-07-29T06:55:06;19.30;99.90
16102;DHT22;56411;52.964;10.540;2023-07-29T06:57:33;19.30;99.90
16102;DHT22;56411;52.964;10.540;2023-07-29T07:00:01;19.40;99.90
16102;DHT22;56411;52.964;10.540;2023-07-29T07:02:28;19.40;99.90
16102;DHT22;56411;52.964;10.540;2023-07-29T07:04:55;19.40;99.90
16102;DHT22;56411;52.964;10.540;2023-07-29T07:07:24;19.40;99.90
16102;DHT22;56411;52.964;10.540;2023-07-29T07:09:51;19.60;99.90
16102;DHT22;56411;52.964;10.540;2023-07-29T07:12:18;19.50;99.90
16102;DHT22;56411;52.964;10.540;2023-07-29T07:14:45;19.50;99.90
16102;DHT22;56411;52.964;10.540;2023-07-29T07:17:12;19.50;99.90
16102;DHT22;56411;52.964;10.540;2023-07-29T07:19:40;19.70;99.90
16102;DHT22;56411;52.964;10.540;2023-07-29T07:22:07;19.60;99.90
16102;DHT22;56411;52.964;10.540;2023-07-29T07:24:35;19.60;99.90
16102;DHT22;56411;52.964;10.540;2023-07-29T07:27:03;19.60;99.90
16102;DHT22;56411;52.964;10.540;2023-07-29T07:29:30;19.60;99.90
16102;DHT22;56411;52.964;10.540;2023-07-29T07:31:58;19.40;99.90
16102;DHT22;56411;52.964;10.540;2023-07-29T07:34:25;19.30;99.90
16102;DHT22;56411;52.964;10.540;2023-07-29T07:36:53;19.10;99.90
16102;DHT22;56411;52.964;10.540;2023-07-29T07:39:20;19.10;99.90
16102;DHT22;56411;52.964;10.540;2023-07-29T07:41:49;19.10;99.90
16102;DHT22;56411;52.964;10.540;2023-07-29T07:44:16;19.00;99.90
16102;DHT22;56411;52.964;10.540;2023-07-29T07:46:45;19.10;99.90
16102;DHT22;56411;52.964;10.540;2023-07-29T07:49:12;19.10;99.90
16102;DHT22;56411;52.964;10.540;2023-07-29T07:51:39;19.00;99.90
16102;DHT22;56411;52.964;10.540;2023-07-29T07:54:07;19.00;99.90
16102;DHT22;56411;52.964;10.540;2023-07-29T07:56:34;19.00;99.90
16102;DHT22;56411;52.964;10.540;2023-07-29T07:59:02;19.00;99.90
16102;DHT22;56411;52.964;10.540;2023-07-29T08:01:35;19.00;99.90
16102;DHT22;56411;52.964;10.540;2023-07-29T08:04:02;19.00;99.90
16102;DHT22;56411;52.964;10.540;2023-07-29T08:06:30;19.00;99.90
16102;DHT22;56411;52.964;10.540;2023-07-29T08:08:57;19.10;99.90
16102;DHT22;56411;52.964;10.540;2023-07-29T08:11:25;19.40;99.90
16102;DHT22;56411;52.964;10.540;2023-07-29T08:13:52;19.60;99.90
16102;DHT22;56411;52.964;10.540;2023-07-29T08:16:20;19.70;99.90
16102;DHT22;56411;52.964;10.540;2023-07-29T08:18:47;19.80;99.90
16102;DHT22;56411;52.964;10.540;2023-07-29T08:21:15;20.10;99.90
16102;DHT22;56411;52.964;10.540;2023-07-29T08:23:42;20.30;99.90
16102;DHT22;56411;52.964;10.540;2023-07-29T08:26:09;20.50;99.90
16102;DHT22;56411;52.964;10.540;2023-07-29T08:28:38;20.30;99.90
16102;DHT22;56411;52.964;10.540;2023-07-29T08:31:06;20.40;99.90
16102;DHT22;56411;52.964;10.540;2023-07-29T08:33:34;20.60;99.90
16102;DHT22;56411;52.964;10.540;2023-07-29T08:36:02;20.70;99.90
16102;DHT22;56411;52.964;10.540;2023-07-29T08:38:29;20.90;99.90
16102;DHT22;56411;52.964;10.540;2023-07-29T08:41:10;21.10;99.90
16102;DHT22;56411;52.964;10.540;2023-07-29T08:43:43;21.10;99.90
16102;DHT22;56411;52.964;10.540;2023-07-29T08:46:11;20.90;99.90
16102;DHT22;56411;52.964;10.540;2023-07-29T08:48:42;21.00;99.90
16102;DHT22;56411;52.964;10.540;2023-07-29T08:51:10;20.80;99.90
16102;DHT22;56411;52.964;10.540;2023-07-29T08:53:39;20.50;99.90
16102;DHT22;56411;52.964;10.540;2023-07-29T08:56:09;20.10;99.90
16102;DHT22;56411;52.964;10.540;2023-07-29T08:58:37;20.00;99.90
16102;DHT22;56411;52.964;10.540;2023-07-29T09:01:06;20.10;99.90
16102;DHT22;56411;52.964;10.540;2023-07-29T09:03:33;20.30;99.90
16102;DHT22;56411;52.964;10.540;2023-07-29T09:06:02;20.50;99.90
16102;DHT22;56411;52.964;10.540;2023-07-29T09:08:30;20.60;99.90
16102;DHT22;56411;52.964;10.540;2023-07-29T09:10:57;20.70;99.90
16102;DHT22;56411;52.964;10.540;2023-07-29T09:13:25;20.80;99.90
16102;DHT22;56411;52.964;10.540;2023-07-29T09:15:54;20.90;99.90
16102;DHT22;56411;52.964;10.540;2023-07-29T09:18:23;20.80;99.90
16102;DHT22;56411;52.964;10.540;2023-07-29T09:20:53;20.80;99.90
16102;DHT22;56411;52.964;10.540;2023-07-29T09:23:22;20.90;99.90
16102;DHT22;56411;52.964;10.540;2023-07-29T09:25:49;21.20;99.90
16102;DHT22;56411;52.964;10.540;2023-07-29T09:28:17;21.50;99.90
16102;DHT22;56411;52.964;10.540;2023-07-29T09:30:45;21.70;99.90
16102;DHT22;56411;52.964;10.540;2023-07-29T09:33:13;22.20;99.90
16102;DHT22;56411;52.964;10.540;2023-07-29T09:35:40;22.60;99.90
16102;DHT22;56411;52.964;10.540;2023-07-29T09:38:07;22.70;99.90
16102;DHT22;56411;52.964;10.540;2023-07-29T09:40:37;22.70;99.90
16102;DHT22;56411;52.964;10.540;2023-07-29T09:43:05;22.40;99.90
16102;DHT22;56411;52.964;10.540;2023-07-29T09:45:34;22.30;99.90
16102;DHT22;56411;52.964;10.540;2023-07-29T09:48:02;22.30;99.90
16102;DHT22;56411;52.964;10.540;2023-07-29T09:50:30;22.20;99.90
16102;DHT22;56411;52.964;10.540;2023-07-29T09:52:58;21.80;99.90
16102;DHT22;56411;52.964;10.540;2023-07-29T09:55:25;21.90;99.90
16102;DHT22;56411;52.964;10.540;2023-07-29T09:57:56;21.80;99.90
16102;DHT22;56411;52.964;10.540;2023-07-29T10:00:27;21.60;99.90
16102;DHT22;56411;52.964;10.540;2023-07-29T10:02:55;21.80;99.90
16102;DHT22;56411;52.964;10.540;2023-07-29T10:05:22;21.70;99.90
16102;DHT22;56411;52.964;10.540;2023-07-29T10:07:50;21.50;99.90
16102;DHT22;56411;52.964;10.540;2023-07-29T10:10:18;21.30;99.90
16102;DHT22;56411;52.964;10.540;2023-07-29T10:12:45;21.30;99.90
16102;DHT22;56411;52.964;10.540;2023-07-29T10:15:15;21.20;99.90
16102;DHT22;56411;52.964;10.540;2023-07-29T10:17:42;21.00;99.90
16102;DHT22;56411;52.964;10.540;2023-07-29T10:20:10;20.30;99.90
16102;DHT22;56411;52.964;10.540;2023-07-29T10:22:39;19.80;99.90
16102;DHT22;56411;52.964;10.540;2023-07-29T10:25:09;19.60;99.90
16102;DHT22;56411;52.964;10.540;2023-07-29T10:27:43;19.70;99.90
16102;DHT22;56411;52.964;10.540;2023-07-29T10:30:11;19.80;99.90
16102;DHT22;56411;52.964;10.540;2023-07-29T10:32:42;20.10;99.90
16102;DHT22;56411;52.964;10.540;2023-07-29T10:35:09;20.40;99.90
16102;DHT22;56411;52.964;10.540;2023-07-29T10:37:37;20.70;99.90
16102;DHT22;56411;52.964;10.540;2023-07-29T10:40:07;20.70;99.90
16102;DHT22;56411;52.964;10.540;2023-07-29T10:42:35;20.90;99.90
16102;DHT22;56411;52.964;10.540;2023-07-29T10:45:18;21.10;99.90
16102;DHT22;56411;52.964;10.540;2023-07-29T10:47:47;21.10;99.90
16102;DHT22;56411;52.964;10.540;2023-07-29T10:50:19;21.40;99.90
16102;DHT22;56411;52.964;10.540;2023-07-29T10:52:49;21.40;99.90
16102;DHT22;56411;52.964;10.540;2023-07-29T10:55:28;21.60;99.90
16102;DHT22;56411;52.964;10.540;2023-07-29T10:58:11;21.60;99.90
16102;DHT22;56411;52.964;10.540;2023-07-29T11:00:38;21.70;99.90
16102;DHT22;56411;52.964;10.540;2023-07-29T11:03:08;21.60;99.90
16102;DHT22;56411;52.964;10.540;2023-07-29T11:05:46;21.20;99.90
16102;DHT22;56411;52.964;10.540;2023-07-29T11:08:22;21.10;99.90
16102;DHT22;56411;52.964;10.540;2023-07-29T11:11:04;20.90;99.90
16102;DHT22;56411;52.964;10.540;2023-07-29T11:13:33;20.50;99.90
16102;DHT22;56411;52.964;10.540;2023-07-29T11:16:01;20.10;99.90
16102;DHT22;56411;52.964;10.540;2023-07-29T11:18:31;19.80;99.90
16102;DHT22;56411;52.964;10.540;2023-07-29T11:21:00;19.40;99.90
16102;DHT22;56411;52.964;10.540;2023-07-29T11:23:28;19.20;99.90
16102;DHT22;56411;52.964;10.540;2023-07-29T11:25:56;19.00;99.90
16102;DHT22;56411;52.964;10.540;2023-07-29T11:28:24;18.80;99.90
16102;DHT22;56411;52.964;10.540;2023-07-29T11:30:52;18.70;99.90
16102;DHT22;56411;52.964;10.540;2023-07-29T11:33:20;18.70;99.90
16102;DHT22;56411;52.964;10.540;2023-07-29T11:35:49;18.60;99.90
16102;DHT22;56411;52.964;10.540;2023-07-29T11:38:17;18.60;99.90
16102;DHT22;56411;52.964;10.540;2023-07-29T11:40:54;18.70;99.90
16102;DHT22;56411;52.964;10.540;2023-07-29T11:43:22;18.70;99.90
16102;DHT22;56411;52.964;10.540;2023-07-29T11:45:49;18.90;99.90
16102;DHT22;56411;52.964;10.540;2023-07-29T11:48:17;19.10;99.90
16102;DHT22;56411;52.964;10.540;2023-07-29T11:50:45;19.30;99.90
16102;DHT22;56411;52.964;10.540;2023-07-29T11:53:15;19.50;99.90
16102;DHT22;56411;52.964;10.540;2023-07-29T11:55:42;19.60;99.90
16102;DHT22;56411;52.964;10.540;2023-07-29T11:58:10;20.30;99.90
16102;DHT22;56411;52.964;10.540;2023-07-29T12:00:38;21.60;99.90
16102;DHT22;56411;52.964;10.540;2023-07-29T12:03:05;22.70;99.90
16102;DHT22;56411;52.964;10.540;2023-07-29T12:05:34;24.00;99.90
16102;DHT22;56411;52.964;10.540;2023-07-29T12:08:01;24.30;99.90
16102;DHT22;56411;52.964;10.540;2023-07-29T12:10:30;24.80;99.90
16102;DHT22;56411;52.964;10.540;2023-07-29T12:12:58;25.40;99.90
16102;DHT22;56411;52.964;10.540;2023-07-29T12:15:26;26.20;99.90
16102;DHT22;56411;52.964;10.540;2023-07-29T12:17:54;26.10;99.90
16102;DHT22;56411;52.964;10.540;2023-07-29T12:20:23;26.10;99.90
16102;DHT22;56411;52.964;10.540;2023-07-29T12:22:54;26.10;99.90
16102;DHT22;56411;52.964;10.540;2023-07-29T12:25:22;25.70;99.90
16102;DHT22;56411;52.964;10.540;2023-07-29T12:27:51;25.50;99.90
16102;DHT22;56411;52.964;10.540;2023-07-29T12:30:21;25.10;99.90
16102;DHT22;56411;52.964;10.540;2023-07-29T12:32:48;25.40;99.90
16102;DHT22;56411;52.964;10.540;2023-07-29T12:35:15;26.50;99.90
16102;DHT22;56411;52.964;10.540;2023-07-29T12:37:43;26.10;99.90
16102;DHT22;56411;52.964;10.540;2023-07-29T12:40:21;26.30;99.90
16102;DHT22;56411;52.964;10.540;2023-07-29T12:42:51;26.10;99.90
16102;DHT22;56411;52.964;10.540;2023-07-29T12:45:18;25.80;99.90
16102;DHT22;56411;52.964;10.540;2023-07-29T12:47:48;25.40;99.90
16102;DHT22;56411;52.964;10.540;2023-07-29T12:50:15;25.60;99.90
16102;DHT22;56411;52.964;10.540;2023-07-29T12:52:43;25.50;99.90
16102;DHT22;56411;52.964;10.540;2023-07-29T12:55:10;25.20;99.90
16102;DHT22;56411;52.964;10.540;2023-07-29T12:57:41;25.40;99.90
16102;DHT22;56411;52.964;10.540;2023-07-29T13:00:12;25.70;99.90
16102;DHT22;56411;52.964;10.540;2023-07-29T13:02:39;25.80;99.90
16102;DHT22;56411;52.964;10.540;2023-07-29T13:05:10;24.70;99.90
16102;DHT22;56411;52.964;10.540;2023-07-29T13:07:38;23.80;99.90
16102;DHT22;56411;52.964;10.540;2023-07-29T13:10:06;23.40;99.90
16102;DHT22;56411;52.964;10.540;2023-07-29T13:12:33;23.60;99.90
16102;DHT22;56411;52.964;10.540;2023-07-29T13:15:01;23.40;99.90
16102;DHT22;56411;52.964;10.540;2023-07-29T13:17:29;22.80;99.90
16102;DHT22;56411;52.964;10.540;2023-07-29T13:19:56;22.40;99.90
16102;DHT22;56411;52.964;10.540;2023-07-29T13:22:23;22.10;99.90
16102;DHT22;56411;52.964;10.540;2023-07-29T13:24:51;21.80;99.90
16102;DHT22;56411;52.964;10.540;2023-07-29T13:27:18;21.60;99.90
16102;DHT22;56411;52.964;10.540;2023-07-29T13:29:45;21.70;99.90
16102;DHT22;56411;52.964;10.540;2023-07-29T13:32:12;22.30;99.90
16102;DHT22;56411;52.964;10.540;2023-07-29T13:34:41;23.10;99.90
16102;DHT22;56411;52.964;10.540;2023-07-29T13:37:08;23.90;99.90
16102;DHT22;56411;52.964;10.540;2023-07-29T13:39:35;24.30;99.90
16102;DHT22;56411;52.964;10.540;2023-07-29T13:42:03;24.80;99.90
16102;DHT22;56411;52.964;10.540;2023-07-29T13:44:30;25.40;99.90
16102;DHT22;56411;52.964;10.540;2023-07-29T13:46:57;25.80;99.90
16102;DHT22;56411;52.964;10.540;2023-07-29T13:49:24;26.10;99.90
16102;DHT22;56411;52.964;10.540;2023-07-29T13:51:54;26.40;99.90
16102;DHT22;56411;52.964;10.540;2023-07-29T13:54:25;26.80;99.90
16102;DHT22;56411;52.964;10.540;2023-07-29T13:56:54;27.20;99.90
16102;DHT22;56411;52.964;10.540;2023-07-29T13:59:21;27.50;99.90
16102;DHT22;56411;52.964;10.540;2023-07-29T14:01:49;28.20;99.90
16102;DHT22;56411;52.964;10.540;2023-07-29T14:04:17;28.80;99.90
16102;DHT22;56411;52.964;10.540;2023-07-29T14:06:44;29.30;99.90
16102;DHT22;56411;52.964;10.540;2023-07-29T14:09:13;29.40;99.90
16102;DHT22;56411;52.964;10.540;2023-07-29T14:11:43;29.30;99.90
16102;DHT22;56411;52.964;10.540;2023-07-29T14:14:11;29.10;99.90
16102;DHT22;56411;52.964;10.540;2023-07-29T14:16:38;28.30;99.90
16102;DHT22;56411;52.964;10.540;2023-07-29T14:19:06;27.70;99.90
16102;DHT22;56411;52.964;10.540;2023-07-29T14:21:33;27.10;99.90
16102;DHT22;56411;52.964;10.540;2023-07-29T14:24:00;26.40;99.90
16102;DHT22;56411;52.964;10.540;2023-07-29T14:26:29;26.80;99.90
16102;DHT22;56411;52.964;10.540;2023-07-29T14:28:56;27.00;99.90
16102;DHT22;56411;52.964;10.540;2023-07-29T14:31:23;27.10;99.90
16102;DHT22;56411;52.964;10.540;2023-07-29T14:33:50;27.40;99.90
16102;DHT22;56411;52.964;10.540;2023-07-29T14:36:17;27.70;99.90
16102;DHT22;56411;52.964;10.540;2023-07-29T14:38:44;27.40;99.90
16102;DHT22;56411;52.964;10.540;2023-07-29T14:41:12;26.50;99.90
16102;DHT22;56411;52.964;10.540;2023-07-29T14:43:41;25.90;99.90
16102;DHT22;56411;52.964;10.540;2023-07-29T14:46:08;25.40;99.90
16102;DHT22;56411;52.964;10.540;2023-07-29T14:48:35;25.10;99.90
16102;DHT22;56411;52.964;10.540;2023-07-29T14:51:02;25.20;99.90
16102;DHT22;56411;52.964;10.540;2023-07-29T14:53:29;25.80;99.90
16102;DHT22;56411;52.964;10.540;2023-07-29T14:55:57;26.80;99.90
16102;DHT22;56411;52.964;10.540;2023-07-29T14:58:24;27.10;99.90
16102;DHT22;56411;52.964;10.540;2023-07-29T15:00:52;26.70;99.90
16102;DHT22;56411;52.964;10.540;2023-07-29T15:03:20;26.70;99.90
16102;DHT22;56411;52.964;10.540;2023-07-29T15:05:47;26.60;99.90
16102;DHT22;56411;52.964;10.540;2023-07-29T15:08:14;26.40;99.90
16102;DHT22;56411;52.964;10.540;2023-07-29T15:10:44;26.30;99.90
16102;DHT22;56411;52.964;10.540;2023-07-29T15:13:11;27.10;99.90
16102;DHT22;56411;52.964;10.540;2023-07-29T15:15:40;27.90;99.90
16102;DHT22;56411;52.964;10.540;2023-07-29T15:18:09;27.80;99.90
16102;DHT22;56411;52.964;10.540;2023-07-29T15:20:36;28.10;99.90